Time;durP1;ratioP1;P1;durP2;ratioP2;P2;SDS_P1;SDS_P2;PMS_P1;PMS_P2;Temp;Humidity;BMP_temperature;BMP_pressure;BME280_temperature;BME280_humidity;BME280_pressure;Samples;Min_cycle;Max_cycle;Signal;HPM_P1;HPM_P2
2022/03/04 00:00:50;;;;;;;23.35;11.00;;;;;;;1.98;50.54;99045.47;4454611;32;33180;-71
2022/03/04 00:03:19;;;;;;;23.23;10.93;;;;;;;1.95;49.42;99049.69;4454889;32;34018;-71
2022/03/04 00:05:47;;;;;;;32.25;15.10;;;;;;;2.34;48.96;99053.81;4468556;32;35987;-72
2022/03/04 00:08:16;;;;;;;30.83;14.45;;;;;;;2.58;48.64;99055.97;4470453;32;34357;-71
2022/03/04 00:10:44;;;;;;;44.15;16.40;;;;;;;3.64;45.30;99056.63;4455084;32;33793;-73
2022/03/04 00:13:13;;;;;;;61.15;21.73;;;;;;;2.99;46.94;99060.88;4440079;32;34081;-73
2022/03/04 00:15:41;;;;;;;41.92;16.17;;;;;;;2.74;47.07;99057.94;4468236;32;35858;-71
2022/03/04 00:18:09;;;;;;;42.50;17.45;;;;;;;2.76;47.82;99060.53;4456565;32;35263;-71
2022/03/04 00:20:37;;;;;;;47.78;17.08;;;;;;;3.09;46.19;99052.47;4456017;32;34157;-71
2022/03/04 00:23:06;;;;;;;31.77;12.40;;;;;;;2.88;47.27;99058.16;4454889;32;34685;-72
2022/03/04 00:25:35;;;;;;;36.97;13.75;;;;;;;3.04;47.95;99059.25;4454025;32;36025;-72
2022/03/04 00:28:03;;;;;;;26.75;13.85;;;;;;;3.40;47.16;99058.03;4454152;32;35212;-73
2022/03/04 00:30:31;;;;;;;29.20;13.20;;;;;;;3.68;46.52;99050.66;4440044;32;33856;-71
2022/03/04 00:33:00;;;;;;;31.50;14.27;;;;;;;3.15;46.85;99057.69;4440915;32;34053;-71
2022/03/04 00:35:28;;;;;;;32.97;13.68;;;;;;;3.31;46.43;99047.63;4456876;32;35988;-71
2022/03/04 00:37:56;;;;;;;22.73;12.02;;;;;;;3.13;46.65;99048.22;4440975;32;34693;-72
2022/03/04 00:40:25;;;;;;;30.10;14.80;;;;;;;3.22;47.63;99043.22;4440162;32;33833;-71
2022/03/04 00:42:53;;;;;;;26.45;13.65;;;;;;;3.27;47.25;99057.00;4466913;32;34792;-74
2022/03/04 00:45:22;;;;;;;31.23;14.15;;;;;;;3.24;46.49;99046.66;4444496;32;36052;-71
2022/03/04 00:47:50;;;;;;;36.55;15.27;;;;;;;3.44;45.99;99044.34;4454437;32;34482;-72
2022/03/04 00:50:18;;;;;;;35.40;14.80;;;;;;;3.55;45.51;99042.78;4454162;32;34451;-72
2022/03/04 00:52:46;;;;;;;32.15;13.90;;;;;;;3.74;45.26;99037.84;4454528;32;33923;-72
2022/03/04 00:55:14;;;;;;;32.00;13.80;;;;;;;3.84;45.68;99039.69;4453953;32;35082;-72
2022/03/04 00:57:42;;;;;;;43.00;15.38;;;;;;;3.85;46.71;99036.28;4453967;32;34472;-71
2022/03/04 01:00:10;;;;;;;28.62;12.88;;;;;;;4.12;45.68;99046.00;4462976;32;33785;-71
2022/03/04 01:02:39;;;;;;;26.60;12.52;;;;;;;4.73;43.17;99030.25;4469935;32;34067;-71
2022/03/04 01:05:08;;;;;;;27.90;12.98;;;;;;;3.68;44.53;99036.06;4460169;32;35146;-72
2022/03/04 01:07:37;;;;;;;31.73;14.30;;;;;;;3.89;44.76;99035.47;4440729;32;34659;-72
2022/03/04 01:10:07;;;;;;;27.45;12.88;;;;;;;4.00;43.41;99030.41;4453941;32;33881;-75
2022/03/04 01:12:35;;;;;;;31.02;13.20;;;;;;;4.05;43.20;99031.34;4453840;32;34763;-73
2022/03/04 01:15:04;;;;;;;34.15;13.02;;;;;;;4.11;44.27;99038.25;4453829;32;35274;-72
2022/03/04 01:17:33;;;;;;;28.95;13.05;;;;;;;3.92;44.86;99032.94;4454323;32;34409;-73
2022/03/04 01:20:02;;;;;;;25.25;11.20;;;;;;;3.44;45.74;99033.19;4453864;32;33799;-71
2022/03/04 01:22:31;;;;;;;31.00;12.93;;;;;;;4.40;44.13;99022.25;4440011;32;33844;-71
2022/03/04 01:24:59;;;;;;;31.08;13.27;;;;;;;3.98;43.09;99032.97;4453774;32;35918;-72
2022/03/04 01:27:28;;;;;;;28.33;13.62;;;;;;;3.84;43.92;99028.53;4453576;32;34257;-71
2022/03/04 01:29:56;;;;;;;30.80;13.10;;;;;;;3.66;47.68;99026.63;4453763;32;34417;-71
2022/03/04 01:32:25;;;;;;;26.48;12.35;;;;;;;3.89;45.61;99022.59;4454353;32;33935;-72
2022/03/04 01:34:54;;;;;;;24.95;12.63;;;;;;;4.16;46.81;99027.19;4456418;32;35117;-71
2022/03/04 01:37:22;;;;;;;26.75;12.27;;;;;;;4.49;45.41;99020.59;4440342;32;34599;-71
2022/03/04 01:39:50;;;;;;;32.58;14.35;;;;;;;5.17;42.78;99025.37;4453532;32;34534;-71
2022/03/04 01:42:18;;;;;;;27.83;13.57;;;;;;;4.40;43.07;99024.81;4454046;32;34607;-71
2022/03/04 01:44:47;;;;;;;25.95;12.77;;;;;;;4.36;44.82;99014.47;4452756;32;34899;-72
2022/03/04 01:47:15;;;;;;;25.45;13.15;;;;;;;3.96;44.22;99023.53;4453932;32;34515;-72
2022/03/04 01:49:43;;;;;;;25.30;11.88;;;;;;;5.17;42.38;99015.03;4455708;32;33683;-71
2022/03/04 01:52:11;;;;;;;30.33;11.80;;;;;;;4.08;46.04;99008.19;4454380;32;33791;-72
2022/03/04 01:54:40;;;;;;;25.98;12.55;;;;;;;3.85;46.68;99010.53;4453951;32;35941;-71
2022/03/04 01:57:09;;;;;;;28.87;12.65;;;;;;;4.13;46.22;99010.78;4453400;32;35339;-71
2022/03/04 01:59:38;;;;;;;24.87;12.43;;;;;;;4.27;46.49;99019.53;4453902;32;33286;-72
2022/03/04 02:02:07;;;;;;;47.72;16.20;;;;;;;4.31;46.59;99021.28;4436869;32;33977;-72
2022/03/04 02:04:36;;;;;;;29.58;13.02;;;;;;;4.54;46.72;99025.78;4449457;32;33513;-71
2022/03/04 02:07:05;;;;;;;29.52;13.30;;;;;;;4.63;45.88;99018.13;4437072;32;34276;-73
2022/03/04 02:09:33;;;;;;;41.28;13.93;;;;;;;4.50;46.23;99026.59;4449236;32;32827;-72
2022/03/04 02:12:02;;;;;;;29.48;12.20;;;;;;;4.57;45.97;99028.41;4438374;32;33880;-72
2022/03/04 02:14:29;;;;;;;27.15;13.98;;;;;;;4.67;45.89;99019.88;4436139;32;35077;-71
2022/03/04 02:16:57;;;;;;;26.83;13.35;;;;;;;4.91;45.09;99023.50;4437115;32;34500;-72
2022/03/04 02:19:26;;;;;;;27.83;14.00;;;;;;;4.88;45.63;99023.47;4437516;32;33805;-71
2022/03/04 02:21:56;;;;;;;26.73;13.10;;;;;;;4.98;45.52;99022.69;4437024;32;33904;-73
2022/03/04 02:24:26;;;;;;;27.95;12.73;;;;;;;4.77;46.11;99025.13;4448257;32;35219;-72
2022/03/04 02:26:57;;;;;;;29.20;12.13;;;;;;;5.13;47.59;99025.37;4453493;32;33733;-71
2022/03/04 02:29:26;;;;;;;23.17;12.65;;;;;;;4.96;49.05;99028.66;4452234;32;34568;-72
2022/03/04 02:31:54;;;;;;;24.37;12.77;;;;;;;4.73;50.78;99030.25;4453498;32;33921;-72
2022/03/04 02:34:23;;;;;;;26.55;13.13;;;;;;;4.85;50.50;99031.19;4441663;32;35201;-71
2022/03/04 02:36:52;;;;;;;25.95;11.98;;;;;;;5.36;49.90;99027.19;4437877;32;34675;-71
2022/03/04 02:39:21;;;;;;;23.90;12.27;;;;;;;4.35;53.17;99029.91;4450589;32;33762;-71
2022/03/04 02:41:50;;;;;;;25.50;12.40;;;;;;;4.34;53.79;99036.78;4454390;32;34841;-72
2022/03/04 02:44:18;;;;;;;24.92;12.40;;;;;;;4.56;53.00;99035.25;4441684;32;35977;-71
2022/03/04 02:46:47;;;;;;;26.52;12.50;;;;;;;4.80;52.75;99038.00;4439851;32;34122;-71
2022/03/04 02:49:15;;;;;;;22.87;11.65;;;;;;;4.95;52.31;99032.97;4439546;32;34569;-72
2022/03/04 02:51:44;;;;;;;24.80;12.63;;;;;;;4.83;52.91;99035.47;4440229;32;34065;-72
2022/03/04 02:54:12;;;;;;;27.42;12.55;;;;;;;4.85;52.96;99036.34;4450878;32;35943;-71
2022/03/04 02:56:41;;;;;;;23.35;12.23;;;;;;;4.96;52.65;99034.72;4440281;32;34527;-71
2022/03/04 02:59:09;;;;;;;36.80;13.73;;;;;;;4.95;52.73;99035.56;4438327;32;33726;-72
2022/03/04 03:01:38;;;;;;;24.55;13.27;;;;;;;5.06;52.36;99044.22;4443744;32;35967;-71
2022/03/04 03:04:07;;;;;;;31.77;13.75;;;;;;;5.10;52.15;99040.81;4454661;32;35144;-72
2022/03/04 03:06:35;;;;;;;21.80;12.07;;;;;;;4.48;53.29;99049.81;4441496;32;35316;-71
2022/03/04 03:09:04;;;;;;;28.35;13.05;;;;;;;4.69;53.16;99049.09;4464746;32;33480;-75
2022/03/04 03:11:32;;;;;;;28.75;13.05;;;;;;;5.07;51.81;99043.38;4470965;32;34800;-71
2022/03/04 03:14:00;;;;;;;25.95;12.77;;;;;;;4.24;53.70;99047.00;4468993;32;35151;-71
2022/03/04 03:16:28;;;;;;;28.17;11.38;;;;;;;4.87;52.18;99047.53;4470958;32;34280;-71
2022/03/04 03:18:56;;;;;;;23.83;13.18;;;;;;;4.36;53.23;99050.56;4447169;32;33937;-72
2022/03/04 03:21:24;;;;;;;21.58;12.23;;;;;;;4.25;53.44;99047.00;4455227;32;33955;-72
2022/03/04 03:23:53;;;;;;;23.20;12.25;;;;;;;4.66;52.40;99049.09;4454632;32;34954;-71
2022/03/04 03:26:23;;;;;;;25.73;12.95;;;;;;;4.65;52.45;99049.94;4455186;32;34499;-71
2022/03/04 03:28:52;;;;;;;29.48;13.45;;;;;;;4.48;52.83;99059.25;4461545;32;33847;-72
2022/03/04 03:31:20;;;;;;;31.92;13.90;;;;;;;4.06;54.15;99060.53;4444537;32;32736;-71
2022/03/04 03:33:48;;;;;;;24.92;12.15;;;;;;;4.29;53.42;99064.22;4454382;32;35056;-71
2022/03/04 03:36:17;;;;;;;26.40;11.55;;;;;;;4.39;53.39;99049.72;4441724;32;35495;-71
2022/03/04 03:38:46;;;;;;;27.13;13.52;;;;;;;4.40;53.43;99060.91;4457298;32;34533;-71
2022/03/04 03:41:14;;;;;;;25.08;11.77;;;;;;;4.47;53.09;99057.53;4441184;32;34779;-72
2022/03/04 03:43:43;;;;;;;25.02;12.75;;;;;;;4.47;52.99;99058.38;4434161;32;35052;-72
2022/03/04 03:46:12;;;;;;;27.75;12.85;;;;;;;4.06;54.51;99063.13;4460359;32;34539;-72
2022/03/04 03:48:40;;;;;;;27.67;12.13;;;;;;;4.18;54.30;99068.41;4459517;32;33813;-71
2022/03/04 03:51:10;;;;;;;27.30;12.27;;;;;;;4.74;52.79;99065.47;4470383;32;34794;-71
2022/03/04 03:53:38;;;;;;;25.58;13.20;;;;;;;4.20;54.05;99064.16;4463890;32;35038;-71
2022/03/04 03:56:07;;;;;;;26.42;12.60;;;;;;;4.05;55.14;99059.69;4454974;32;34597;-71
2022/03/04 03:58:36;;;;;;;26.15;13.48;;;;;;;4.02;55.10;99063.94;4459451;32;34614;-72
2022/03/04 04:01:05;;;;;;;24.52;13.57;;;;;;;4.17;54.94;99064.09;4461202;32;33766;-75
2022/03/04 04:03:34;;;;;;;26.48;12.35;;;;;;;4.41;54.41;99066.03;4459085;32;35101;-71
2022/03/04 04:06:02;;;;;;;27.83;13.18;;;;;;;4.31;54.50;99064.25;4470504;32;34430;-71
2022/03/04 04:08:31;;;;;;;24.40;12.40;;;;;;;4.36;54.12;99063.44;4450799;32;33604;-71
2022/03/04 04:11:00;;;;;;;33.85;13.13;;;;;;;4.88;53.37;99057.00;4454948;32;33815;-71
2022/03/04 04:13:28;;;;;;;28.17;12.55;;;;;;;4.50;53.96;99057.53;4454325;32;34954;-71
2022/03/04 04:15:57;;;;;;;25.10;13.10;;;;;;;4.28;54.53;99067.66;4447513;32;34646;-71
2022/03/04 04:18:26;;;;;;;25.05;13.35;;;;;;;4.48;54.02;99064.41;4451926;32;33723;-71
2022/03/04 04:20:56;;;;;;;29.10;13.07;;;;;;;4.25;54.89;99062.44;4441114;32;34724;-71
2022/03/04 04:23:24;;;;;;;27.95;12.27;;;;;;;4.31;54.40;99067.69;4454199;32;35142;-71
2022/03/04 04:25:53;;;;;;;32.08;12.32;;;;;;;4.32;54.66;99069.44;4454862;32;34422;-71
2022/03/04 04:28:23;;;;;;;27.50;13.52;;;;;;;4.88;53.10;99064.75;4456809;32;33494;-71
2022/03/04 04:30:52;;;;;;;34.08;14.10;;;;;;;4.42;53.92;99072.09;4449389;32;34773;-72
2022/03/04 04:33:21;;;;;;;23.75;12.18;;;;;;;4.88;53.00;99069.91;4456158;32;35072;-71
2022/03/04 04:35:52;;;;;;;24.23;12.55;;;;;;;4.51;53.95;99064.44;4454942;32;34615;-71
2022/03/04 04:38:20;;;;;;;27.58;13.13;;;;;;;4.31;54.00;99072.00;4454291;32;33624;-72
2022/03/04 04:40:49;;;;;;;20.23;12.02;;;;;;;4.28;54.27;99072.81;4454806;32;33969;-71
2022/03/04 04:43:17;;;;;;;32.25;13.77;;;;;;;4.26;54.15;99082.25;4454220;32;35901;-71
2022/03/04 04:45:45;;;;;;;34.72;15.35;;;;;;;4.13;54.28;99085.53;4454058;32;35258;-72
2022/03/04 04:48:17;;;;;;;30.15;14.32;;;;;;;4.56;53.25;99091.97;4453523;32;33829;-73
2022/03/04 04:50:46;;;;;;;26.15;13.57;;;;;;;3.70;55.66;99100.47;4470027;32;34732;-73
2022/03/04 04:53:14;;;;;;;23.85;12.55;;;;;;;3.27;55.50;99098.19;4455022;32;35753;-73
2022/03/04 04:55:42;;;;;;;23.83;12.30;;;;;;;2.92;56.32;99107.94;4470141;32;34582;-73
2022/03/04 04:58:11;;;;;;;63.08;24.35;;;;;;;2.77;56.92;99105.94;4462357;32;33971;-72
2022/03/04 05:00:40;;;;;;;22.83;12.35;;;;;;;2.70;57.29;99107.56;4470053;32;34024;-70
2022/03/04 05:03:08;;;;;;;25.35;12.30;;;;;;;3.44;55.04;99116.41;4467408;32;34908;-69
2022/03/04 05:05:37;;;;;;;27.50;14.50;;;;;;;3.17;55.39;99117.75;4454386;32;34726;-71
2022/03/04 05:08:05;;;;;;;29.67;13.10;;;;;;;2.49;57.29;99115.78;4453614;32;33851;-72
2022/03/04 05:10:33;;;;;;;28.90;13.62;;;;;;;3.38;54.47;99122.34;4454332;32;33281;-74
2022/03/04 05:13:01;;;;;;;24.50;13.57;;;;;;;2.87;56.39;99128.41;4454421;32;34958;-69
2022/03/04 05:15:29;;;;;;;22.80;11.73;;;;;;;3.26;55.28;99124.75;4468882;32;32709;-69
2022/03/04 05:17:58;;;;;;;27.80;12.60;;;;;;;3.21;53.92;99124.69;4469939;32;34574;-70
2022/03/04 05:20:26;;;;;;;30.85;13.80;;;;;;;2.85;55.43;99130.09;4468437;32;33903;-70
2022/03/04 05:22:55;;;;;;;35.75;14.02;;;;;;;2.94;56.66;99122.53;4469827;32;35047;-70
2022/03/04 05:25:23;;;;;;;30.75;14.35;;;;;;;3.00;56.58;99132.94;4454648;32;35247;-73
2022/03/04 05:27:51;;;;;;;29.40;14.43;;;;;;;2.80;56.63;99130.00;4454205;32;34558;-72
2022/03/04 05:30:23;;;;;;;23.08;12.40;;;;;;;2.60;57.23;99136.53;4467014;32;33952;-74
2022/03/04 05:32:52;;;;;;;28.90;12.27;;;;;;;2.71;58.08;99136.72;4458303;32;36028;-69
2022/03/04 05:35:21;;;;;;;26.55;12.68;;;;;;;2.96;57.76;99143.12;4453396;32;35222;-70
2022/03/04 05:37:49;;;;;;;26.27;13.27;;;;;;;3.86;55.28;99138.44;4454257;32;33616;-70
2022/03/04 05:40:22;;;;;;;25.83;11.82;;;;;;;4.16;53.91;99140.56;4465891;32;33959;-71
2022/03/04 05:42:51;;;;;;;31.45;13.68;;;;;;;3.02;56.90;99154.41;4455752;32;34934;-70
2022/03/04 05:45:19;;;;;;;25.60;13.13;;;;;;;2.98;57.55;99156.88;4454092;32;35130;-71
2022/03/04 05:47:49;;;;;;;32.25;13.52;;;;;;;3.06;58.00;99159.59;4452596;32;33744;-71
2022/03/04 05:50:21;;;;;;;24.55;11.52;;;;;;;3.11;57.61;99166.53;4453905;32;33761;-73
2022/03/04 05:52:49;;;;;;;31.95;13.68;;;;;;;3.18;57.86;99180.38;4453226;32;35032;-74
2022/03/04 05:55:22;;;;;;;29.70;14.50;;;;;;;2.91;58.54;99175.63;4453861;32;34550;-72
2022/03/04 05:57:51;;;;;;;35.30;15.25;;;;;;;2.64;59.71;99176.88;4455329;32;33856;-70
2022/03/04 06:00:19;;;;;;;25.95;13.38;;;;;;;2.07;62.61;99178.34;4469194;32;33780;-69
2022/03/04 06:02:48;;;;;;;27.23;14.02;;;;;;;3.60;58.26;99175.03;4460050;32;35885;-72
2022/03/04 06:05:17;;;;;;;33.88;13.35;;;;;;;3.17;59.31;99178.63;4453617;32;35219;-72
2022/03/04 06:07:46;;;;;;;33.78;13.75;;;;;;;2.85;60.09;99182.38;4453041;32;33737;-70
2022/03/04 06:10:15;;;;;;;26.60;14.40;;;;;;;3.04;59.28;99183.56;4439515;32;33928;-71
2022/03/04 06:12:43;;;;;;;27.77;13.88;;;;;;;3.11;58.88;99184.56;4452953;32;35058;-71
2022/03/04 06:15:13;;;;;;;24.17;13.38;;;;;;;3.44;58.13;99187.63;4454814;32;35208;-72
2022/03/04 06:17:50;;;;;;;27.37;13.10;;;;;;;3.27;59.39;99195.97;4441495;32;32894;-70
2022/03/04 06:20:19;;;;;;;29.45;13.10;;;;;;;3.63;58.45;99199.94;4455357;32;34662;-71
2022/03/04 06:22:48;;;;;;;34.53;13.73;;;;;;;3.25;59.62;99201.91;4454876;32;35935;-73
2022/03/04 06:25:17;;;;;;;33.35;14.13;;;;;;;3.51;59.01;99199.75;4455368;32;34334;-71
2022/03/04 06:27:56;;;;;;;25.37;12.55;;;;;;;4.01;56.91;99204.78;4454464;32;33864;-70
2022/03/04 06:30:27;;;;;;;28.05;12.52;;;;;;;4.56;55.34;99196.84;4454957;32;33638;-72
2022/03/04 06:33:30;;;;;;;26.37;12.60;;;;;;;4.50;55.37;99205.38;4457112;32;35127;-71
2022/03/04 06:35:46;;;;;;;27.42;12.77;;;;;;;4.29;55.42;99213.72;4459478;32;35294;-71
2022/03/04 06:38:15;;;;;;;26.95;13.85;;;;;;;4.66;54.51;99208.13;4443220;32;33276;-75
2022/03/04 06:40:46;;;;;;;26.87;13.68;;;;;;;4.45;54.67;99208.78;4440764;32;33102;-72
2022/03/04 06:43:15;;;;;;;28.62;13.05;;;;;;;4.21;55.24;99214.47;4440926;32;35171;-73
2022/03/04 06:45:45;;;;;;;36.30;15.90;;;;;;;4.20;54.91;99216.19;4455438;32;34518;-70
2022/03/04 06:48:21;;;;;;;37.88;14.75;;;;;;;3.97;56.79;99221.00;4440795;32;33940;-71
2022/03/04 06:50:51;;;;;;;34.22;14.32;;;;;;;3.80;58.94;99228.53;4442299;32;34864;-71
2022/03/04 06:53:20;;;;;;;48.65;20.27;;;;;;;3.60;58.88;99226.50;4441548;32;35132;-71
2022/03/04 06:55:49;;;;;;;79.35;30.98;;;;;;;3.65;58.78;99223.13;4454829;32;35574;-71
2022/03/04 06:58:18;;;;;;;45.05;19.35;;;;;;;3.88;58.18;99220.91;4447023;32;228854;-72
2022/03/04 07:00:47;;;;;;;40.95;16.58;;;;;;;3.64;57.82;99226.56;4455311;32;33813;-71
2022/03/04 07:03:16;;;;;;;34.10;16.15;;;;;;;3.36;58.48;99220.97;4458070;32;34964;-71
2022/03/04 07:05:45;;;;;;;34.08;15.48;;;;;;;3.09;61.10;99232.53;4457463;32;34558;-72
2022/03/04 07:08:14;;;;;;;34.47;14.93;;;;;;;3.65;58.62;99233.44;4466373;32;33712;-72
2022/03/04 07:10:43;;;;;;;29.67;14.00;;;;;;;4.37;57.75;99232.72;4454640;32;34628;-72
2022/03/04 07:13:13;;;;;;;30.75;15.07;;;;;;;4.65;56.25;99233.06;4443619;32;35920;-72
2022/03/04 07:15:43;;;;;;;28.12;14.80;;;;;;;4.68;54.45;99237.41;4470951;32;35259;-72
2022/03/04 07:18:13;;;;;;;30.23;14.30;;;;;;;4.87;55.19;99239.31;4469707;32;32906;-72
2022/03/04 07:20:42;;;;;;;30.17;15.57;;;;;;;4.92;55.46;99240.25;4470775;32;33933;-71
2022/03/04 07:23:10;;;;;;;30.17;15.85;;;;;;;5.42;53.27;99236.41;4465726;32;35963;-72
2022/03/04 07:25:39;;;;;;;34.55;16.20;;;;;;;5.32;53.99;99247.50;4453631;32;34768;-72
2022/03/04 07:28:08;;;;;;;35.95;17.33;;;;;;;4.43;55.81;99247.41;4454693;32;34679;-72
2022/03/04 07:30:36;;;;;;;35.47;18.05;;;;;;;5.65;53.39;99249.50;4454809;32;34793;-72
2022/03/04 07:33:04;;;;;;;35.65;17.70;;;;;;;5.49;53.15;99245.06;4455523;32;34937;-72
2022/03/04 07:35:33;;;;;;;33.15;14.65;;;;;;;5.45;52.75;99254.50;4456015;32;35348;-71
2022/03/04 07:38:02;;;;;;;33.67;16.33;;;;;;;5.09;53.18;99249.84;4454621;32;33689;-72
2022/03/04 07:40:30;;;;;;;31.10;15.75;;;;;;;4.75;53.96;99254.66;4455182;32;34635;-71
2022/03/04 07:42:59;;;;;;;38.03;15.73;;;;;;;5.62;52.11;99256.34;4454516;32;35923;-72
2022/03/04 07:45:37;;;;;;;36.58;16.37;;;;;;;6.05;51.34;99257.56;4452745;32;34597;-69
2022/03/04 07:48:19;;;;;;;33.35;18.98;;;;;;;6.15;51.15;99252.44;4465128;32;33713;-70
2022/03/04 07:50:48;;;;;;;36.85;17.33;;;;;;;5.27;53.52;99264.66;4459868;32;33843;-70
2022/03/04 07:53:16;;;;;;;34.53;17.00;;;;;;;5.59;52.95;99267.50;4454055;32;35952;-69
2022/03/04 07:55:44;;;;;;;30.92;15.25;;;;;;;5.96;52.16;99262.63;4454707;32;34492;-71
2022/03/04 07:58:13;;;;;;;32.97;17.65;;;;;;;5.30;52.58;99269.84;4454228;32;34530;-70
2022/03/04 08:00:42;;;;;;;35.30;20.40;;;;;;;4.84;54.22;99271.97;4454850;32;34706;-70
2022/03/04 08:03:25;;;;;;;35.05;15.50;;;;;;;5.08;54.92;99274.81;4456309;32;34993;-71
2022/03/04 08:05:53;;;;;;;31.37;14.40;;;;;;;5.73;52.20;99274.50;4469495;32;34092;-71
2022/03/04 08:08:22;;;;;;;32.72;15.80;;;;;;;6.21;50.16;99279.19;4466909;32;33679;-70
2022/03/04 08:10:53;;;;;;;27.62;14.60;;;;;;;6.34;50.55;99281.84;4453131;32;34420;-71
2022/03/04 08:13:22;;;;;;;30.33;15.43;;;;;;;6.37;50.76;99277.56;4438619;32;33748;-70
2022/03/04 08:15:52;;;;;;;24.60;13.35;;;;;;;5.17;54.51;99288.62;4454838;32;34574;-71
2022/03/04 08:18:20;;;;;;;30.48;13.90;;;;;;;5.48;53.39;99288.06;4455085;32;33971;-72
2022/03/04 08:20:51;;;;;;;27.67;13.18;;;;;;;5.28;53.81;99294.78;4470508;32;33960;-72
2022/03/04 08:23:20;;;;;;;30.90;14.15;;;;;;;5.57;53.11;99301.94;4453972;32;35928;-71
2022/03/04 08:25:49;;;;;;;34.22;16.73;;;;;;;5.22;54.63;99302.47;4454648;32;34440;-72
2022/03/04 08:28:18;;;;;;;28.67;14.38;;;;;;;5.26;55.18;99301.66;4454771;32;33905;-71
2022/03/04 08:30:48;;;;;;;29.73;14.13;;;;;;;5.04;56.01;99305.72;4468266;32;34814;-72
2022/03/04 08:33:17;;;;;;;30.60;14.10;;;;;;;5.47;54.32;99309.59;4455367;32;34928;-72
2022/03/04 08:35:45;;;;;;;30.10;15.13;;;;;;;5.33;55.11;99303.44;4470542;32;34545;-71
2022/03/04 08:38:14;;;;;;;31.65;14.18;;;;;;;5.61;53.30;99307.16;4454214;32;34437;-71
2022/03/04 08:40:43;;;;;;;28.27;13.65;;;;;;;5.42;54.05;99308.69;4440680;32;34135;-71
2022/03/04 08:43:13;;;;;;;30.30;15.10;;;;;;;5.46;54.64;99307.00;4454245;32;35209;-71
2022/03/04 08:45:42;;;;;;;31.77;14.98;;;;;;;5.33;54.77;99306.03;4453223;32;34963;-72
2022/03/04 08:48:12;;;;;;;32.17;14.57;;;;;;;5.47;55.00;99313.88;4454515;32;33834;-72
2022/03/04 08:50:40;;;;;;;27.08;14.35;;;;;;;4.92;56.65;99315.06;4440762;32;32790;-72
2022/03/04 08:53:09;;;;;;;32.92;15.60;;;;;;;5.95;54.04;99314.28;4454722;32;34800;-71
2022/03/04 08:55:41;;;;;;;28.75;14.05;;;;;;;5.39;54.80;99310.38;4453688;32;35278;-71
2022/03/04 08:58:10;;;;;;;29.80;15.10;;;;;;;5.56;55.01;99321.75;4454666;32;34060;-72
2022/03/04 09:00:38;;;;;;;29.48;15.43;;;;;;;5.36;55.54;99321.53;4453442;32;34027;-72
2022/03/04 09:03:07;;;;;;;34.70;14.10;;;;;;;5.50;55.87;99317.34;4453876;32;34547;-72
2022/03/04 09:05:35;;;;;;;34.22;15.65;;;;;;;5.99;54.56;99324.69;4468187;32;34526;-72
2022/03/04 09:08:04;;;;;;;31.25;16.20;;;;;;;6.17;53.99;99323.97;4470008;32;33633;-72
2022/03/04 09:10:32;;;;;;;33.90;15.65;;;;;;;5.76;54.36;99324.50;4468637;32;34776;-71
2022/03/04 09:13:06;;;;;;;27.77;14.35;;;;;;;5.52;55.82;99327.72;4470098;32;34855;-72
2022/03/04 09:15:35;;;;;;;28.62;14.32;;;;;;;4.94;57.31;99318.53;4454594;32;35304;-71
2022/03/04 09:18:07;;;;;;;38.83;16.85;;;;;;;6.12;53.81;99322.19;4454411;32;33854;-71
2022/03/04 09:20:36;;;;;;;27.23;14.25;;;;;;;5.88;55.39;99323.72;4467529;32;34020;-71
2022/03/04 09:23:05;;;;;;;33.60;17.08;;;;;;;5.31;57.06;99320.63;4446494;32;35024;-72
2022/03/04 09:25:48;;;;;;;30.90;17.50;;;;;;;5.91;55.63;99317.72;4454375;32;34010;-71
2022/03/04 09:28:41;;;;;;;36.05;17.98;;;;;;;5.98;55.33;99328.16;4466549;32;34497;-71
2022/03/04 09:31:11;;;;;;;27.50;14.70;;;;;;;5.99;54.51;99324.69;4469899;32;34677;-71
2022/03/04 09:33:40;;;;;;;30.90;18.37;;;;;;;5.57;56.29;99330.34;4445854;32;35879;-71
2022/03/04 09:36:11;;;;;;;36.28;20.12;;;;;;;6.92;52.38;99328.69;4453596;32;34514;-72
2022/03/04 09:38:41;;;;;;;36.83;16.95;;;;;;;6.53;53.42;99331.94;4453606;32;34549;-71
2022/03/04 09:41:11;;;;;;;29.30;16.85;;;;;;;6.67;53.17;99334.59;4454088;32;33861;-72
2022/03/04 09:43:39;;;;;;;25.60;13.77;;;;;;;6.09;53.11;99338.56;4439598;32;35126;-71
2022/03/04 09:46:08;;;;;;;33.95;15.25;;;;;;;6.76;51.87;99335.50;4452480;32;35363;-71
2022/03/04 09:48:40;;;;;;;35.25;16.87;;;;;;;6.63;53.89;99342.34;4453152;32;33645;-71
2022/03/04 09:51:10;;;;;;;36.90;18.95;;;;;;;5.79;56.39;99344.31;4439319;32;33814;-71
2022/03/04 09:53:39;;;;;;;27.05;15.13;;;;;;;6.28;54.78;99336.97;4449852;32;35279;-72
2022/03/04 09:56:08;;;;;;;40.78;23.12;;;;;;;7.03;52.54;99339.94;4469522;32;34692;-71
2022/03/04 09:58:37;;;;;;;29.30;15.25;;;;;;;6.81;52.67;99338.09;4454773;32;33862;-72
2022/03/04 10:01:10;;;;;;;28.02;15.32;;;;;;;7.12;51.66;99338.25;4469256;32;33890;-71
2022/03/04 10:03:46;;;;;;;32.47;18.58;;;;;;;7.46;50.95;99339.16;4457824;32;35032;-71
2022/03/04 10:06:16;;;;;;;33.10;17.20;;;;;;;6.48;53.40;99338.78;4453539;32;35384;-73
2022/03/04 10:08:46;;;;;;;34.67;15.88;;;;;;;6.34;54.85;99338.75;4439521;32;33702;-71
2022/03/04 10:11:29;;;;;;;30.17;14.95;;;;;;;6.76;53.17;99332.03;4453709;32;34048;-70
2022/03/04 10:14:07;;;;;;;32.10;18.15;;;;;;;6.40;53.65;99337.03;4439239;32;35883;-71
2022/03/04 10:16:39;;;;;;;38.10;17.40;;;;;;;7.88;50.86;99331.44;4454109;32;34748;-71
2022/03/04 10:19:08;;;;;;;32.60;19.20;;;;;;;7.20;51.72;99331.37;4465267;32;33861;-71
2022/03/04 10:21:53;;;;;;;32.42;17.05;;;;;;;6.95;51.39;99333.88;4455590;32;34826;-71
2022/03/04 10:24:37;;;;;;;28.80;15.45;;;;;;;7.52;50.98;99330.56;4452967;32;34983;-71
2022/03/04 10:27:15;;;;;;;39.80;19.40;;;;;;;7.44;51.12;99324.50;4439971;32;34451;-71
2022/03/04 10:29:49;;;;;;;34.50;16.90;;;;;;;7.61;50.81;99322.78;4453570;32;34716;-71
2022/03/04 10:32:26;;;;;;;37.50;17.25;;;;;;;7.33;51.02;99325.34;4455774;32;34009;-71
2022/03/04 10:34:59;;;;;;;39.25;18.52;;;;;;;6.78;52.16;99331.22;4453461;32;35233;-71
2022/03/04 10:37:44;;;;;;;38.28;19.55;;;;;;;6.62;52.94;99322.50;4439050;32;35307;-72
2022/03/04 10:40:19;;;;;;;39.05;18.70;;;;;;;6.62;52.70;99327.69;4453512;32;34542;-69
2022/03/04 10:42:59;;;;;;;38.80;20.45;;;;;;;7.00;53.94;99319.19;4452917;32;34671;-72
2022/03/04 10:45:37;;;;;;;33.55;16.45;;;;;;;7.39;52.36;99333.13;4452779;32;34959;-72
2022/03/04 10:48:12;;;;;;;38.08;17.12;;;;;;;7.70;51.38;99319.34;4457386;32;34417;-72
2022/03/04 10:50:51;;;;;;;38.78;20.00;;;;;;;7.00;53.84;99321.78;4455055;32;33616;-72
2022/03/04 10:53:22;;;;;;;46.42;19.70;;;;;;;7.26;53.74;99326.19;4467811;32;34784;-71
2022/03/04 10:55:59;;;;;;;42.80;20.52;;;;;;;7.06;53.82;99322.66;4468718;32;36039;-71
2022/03/04 10:58:37;;;;;;;38.17;19.50;;;;;;;6.62;55.25;99314.75;4454419;32;35274;-71
2022/03/04 11:01:12;;;;;;;40.20;20.42;;;;;;;6.31;55.47;99320.63;4469683;32;34574;-71
2022/03/04 11:03:42;;;;;;;33.88;18.30;;;;;;;6.01;56.95;99325.56;4469517;32;34840;-68
2022/03/04 11:06:13;;;;;;;31.67;18.20;;;;;;;6.69;54.58;99318.22;4470802;32;35928;-69
2022/03/04 11:08:42;;;;;;;41.60;18.85;;;;;;;6.98;54.44;99320.91;4447295;32;34533;-70
2022/03/04 11:11:11;;;;;;;39.60;19.17;;;;;;;7.18;53.73;99320.13;4454486;32;33465;-70
2022/03/04 11:13:39;;;;;;;43.55;20.12;;;;;;;7.03;53.91;99316.63;4462722;32;34851;-70
2022/03/04 11:16:09;;;;;;;35.42;18.60;;;;;;;6.68;55.04;99310.47;4470831;32;35300;-70
2022/03/04 11:18:38;;;;;;;38.88;19.45;;;;;;;7.18;53.68;99313.22;4462290;32;33730;-70
2022/03/04 11:21:06;;;;;;;41.20;19.25;;;;;;;6.42;55.54;99313.75;4455532;32;33839;-70
2022/03/04 11:23:37;;;;;;;36.58;18.62;;;;;;;7.26;54.80;99313.25;4454703;32;34002;-70
2022/03/04 11:26:19;;;;;;;38.38;19.25;;;;;;;7.79;53.32;99312.44;4441528;32;35090;-70
2022/03/04 11:28:52;;;;;;;40.50;19.10;;;;;;;7.76;52.41;99320.22;4449175;32;35277;-70
2022/03/04 11:31:23;;;;;;;34.92;17.33;;;;;;;7.74;50.96;99314.16;4469206;32;33602;-70
2022/03/04 11:33:53;;;;;;;37.47;19.85;;;;;;;8.78;50.25;99312.28;4454581;32;33942;-70
2022/03/04 11:36:25;;;;;;;94.65;42.08;;;;;;;8.96;49.49;99305.28;4454878;32;34149;-71